Time;durP1;ratioP1;P1;durP2;ratioP2;P2;SDS_P1;SDS_P2;PMS_P1;PMS_P2;Temp;Humidity;BMP_temperature;BMP_pressure;BME280_temperature;BME280_humidity;BME280_pressure;Samples;Min_cycle;Max_cycle;Signal;HPM_P1;HPM_P2
2022/09/05 00:01:41;;;;;;;0.30;0.30;;;;;;;21.50;100.00;99486.44;7385054;19;20018;-81
2022/09/05 00:04:22;;;;;;;0.50;0.25;;;;;;;21.46;100.00;99480.38;7384661;19;20014;-81
2022/09/05 00:07:25;;;;;;;4.55;1.13;;;;;;;21.40;100.00;99486.22;7388889;19;20014;-81
2022/09/05 00:10:30;;;;;;;0.95;0.28;;;;;;;21.36;100.00;99473.72;7386165;19;20989;-81
2022/09/05 00:12:59;;;;;;;0.43;0.40;;;;;;;21.16;100.00;99477.41;7384741;19;20026;-81
2022/09/05 00:15:50;;;;;;;1.98;0.55;;;;;;;20.84;100.00;99470.00;7383677;19;20031;-81
2022/09/05 00:18:25;;;;;;;;;;;;;;;21.13;100.00;99465.13;7388424;19;20010;-81
2022/09/05 00:21:19;;;;;;;0.28;0.20;;;;;;;20.76;100.00;99466.38;7386116;19;20039;-81
2022/09/05 00:24:04;;;;;;;1.05;0.35;;;;;;;20.67;100.00;99466.88;7381910;19;20694;-81
2022/09/05 00:26:37;;;;;;;0.30;0.20;;;;;;;20.66;100.00;99454.00;7384011;19;20018;-82
2022/09/05 00:29:31;;;;;;;0.55;0.28;;;;;;;20.23;100.00;99456.69;7388312;19;20038;-81
2022/09/05 00:32:13;;;;;;;0.20;0.15;;;;;;;19.98;100.00;99464.72;7389784;19;20044;-81
2022/09/05 00:35:12;;;;;;;3.13;0.30;;;;;;;20.43;100.00;99501.19;7388705;19;20018;-81
2022/09/05 00:37:41;;;;;;;0.20;0.20;;;;;;;20.58;100.00;99627.88;7385981;19;20098;-81
2022/09/05 00:40:24;;;;;;;5.35;0.30;;;;;;;20.62;100.00;99680.00;7388534;19;20041;-81
2022/09/05 00:43:17;;;;;;;3.97;0.55;;;;;;;20.53;100.00;99671.97;7387261;19;20015;-83
2022/09/05 00:45:52;;;;;;;0.82;0.35;;;;;;;20.46;100.00;99672.66;7385719;19;20029;-83
2022/09/05 00:48:27;;;;;;;3.72;0.60;;;;;;;20.33;100.00;99655.72;7388437;19;20039;-84
2022/09/05 00:51:26;;;;;;;0.93;0.38;;;;;;;20.55;100.00;99646.75;7387096;19;20564;-83
2022/09/05 00:54:20;;;;;;;1.13;0.40;;;;;;;20.40;100.00;99632.41;7388295;19;20468;-83
2022/09/05 00:56:56;;;;;;;2.03;0.63;;;;;;;20.27;100.00;99632.47;7389542;19;20082;-83
2022/09/05 00:59:25;;;;;;;1.55;0.43;;;;;;;20.22;100.00;99628.44;7388335;19;20022;-84
2022/09/05 01:02:23;;;;;;;0.77;0.15;;;;;;;20.26;100.00;99625.28;7388730;19;20014;-85
2022/09/05 01:05:05;;;;;;;3.88;0.57;;;;;;;20.18;100.00;99607.44;7389409;19;20019;-85
2022/09/05 01:07:49;;;;;;;5.35;0.43;;;;;;;20.16;100.00;99593.09;7394571;19;20023;-86
2022/09/05 01:10:27;;;;;;;2.58;0.70;;;;;;;20.14;100.00;99584.41;7392478;19;20023;-86
2022/09/05 01:13:12;;;;;;;0.85;0.38;;;;;;;20.14;100.00;99562.50;7391334;19;20372;-86
2022/09/05 01:16:20;;;;;;;0.20;0.20;;;;;;;20.07;100.00;99551.91;7391908;19;20011;-86
2022/09/05 01:19:04;;;;;;;2.08;0.47;;;;;;;20.08;100.00;99555.47;7391637;19;20018;-86
2022/09/05 01:21:48;;;;;;;0.80;0.40;;;;;;;20.08;100.00;99558.28;7389158;19;20018;-86
2022/09/05 01:24:27;;;;;;;7.70;0.50;;;;;;;20.05;100.00;99559.41;7389158;19;20047;-85
2022/09/05 01:26:59;;;;;;;2.05;1.05;;;;;;;19.99;100.00;99567.25;7394140;19;20014;-85
2022/09/05 01:30:03;;;;;;;6.00;0.10;;;;;;;19.94;100.00;99562.47;7389102;19;20033;-85
2022/09/05 01:32:36;;;;;;;0.73;0.73;;;;;;;19.89;100.00;99557.69;7387616;19;20015;-85
2022/09/05 01:35:32;;;;;;;0.82;0.30;;;;;;;19.76;100.00;99521.00;7388611;19;20043;-85
2022/09/05 01:38:07;;;;;;;0.28;0.10;;;;;;;19.70;100.00;99517.53;7390770;19;20040;-84
2022/09/05 01:40:45;;;;;;;1.00;0.55;;;;;;;19.61;100.00;99516.69;7395952;19;20042;-83
2022/09/05 01:43:26;;;;;;;0.65;0.52;;;;;;;19.57;100.00;99519.09;7396142;19;20096;-89
2022/09/05 01:46:16;;;;;;;;;;;;;;;19.54;100.00;99527.88;7394941;19;20015;-84
2022/09/05 01:48:56;;;;;;;1.85;0.40;;;;;;;19.49;100.00;99548.53;7397281;19;20360;-85
2022/09/05 01:51:35;;;;;;;;;;;;;;;19.52;100.00;99548.19;7397115;19;20007;-86
2022/09/05 01:54:18;;;;;;;1.40;0.30;;;;;;;19.51;100.00;99557.97;7395794;19;19932;-85
2022/09/05 01:57:01;;;;;;;1.60;0.38;;;;;;;19.49;100.00;99571.88;7397847;19;20014;-85
2022/09/05 01:59:39;;;;;;;0.60;0.13;;;;;;;19.51;100.00;99580.56;7396547;19;20429;-86
2022/09/05 02:02:54;;;;;;;2.85;0.30;;;;;;;19.60;100.00;99585.00;7395732;19;20022;-85
2022/09/05 02:05:43;;;;;;;1.45;0.35;;;;;;;19.63;100.00;99575.47;7395959;19;20099;-86
2022/09/05 02:08:12;;;;;;;1.98;0.10;;;;;;;19.61;100.00;99586.56;7393427;19;20536;-85
2022/09/05 02:11:02;;;;;;;0.35;0.10;;;;;;;19.59;100.00;99581.44;7395822;19;20061;-84
2022/09/05 02:13:34;;;;;;;0.88;0.25;;;;;;;19.61;100.00;99586.56;7397361;19;20037;-85
2022/09/05 02:16:23;;;;;;;1.38;0.40;;;;;;;19.63;100.00;99590.34;7395588;19;20035;-85
2022/09/05 02:19:07;;;;;;;1.08;0.40;;;;;;;19.64;100.00;99577.72;7396185;19;20086;-85
2022/09/05 02:21:39;;;;;;;1.38;0.65;;;;;;;19.68;100.00;99580.97;7396463;19;20802;-85
2022/09/05 02:24:35;;;;;;;3.45;0.50;;;;;;;19.68;100.00;99578.16;7394970;19;20469;-85
2022/09/05 02:30:15;;;;;;;1.00;0.28;;;;;;;19.76;100.00;99583.16;7394298;19;20447;-58
2022/09/05 02:33:12;;;;;;;0.55;0.20;;;;;;;19.74;100.00;99592.19;7393634;19;20010;-58
2022/09/05 02:35:59;;;;;;;0.55;0.40;;;;;;;19.77;100.00;99596.00;7387780;19;20542;-58
2022/09/05 02:38:38;;;;;;;1.20;0.30;;;;;;;19.75;100.00;99573.91;7388273;19;20014;-59
2022/09/05 02:41:28;;;;;;;1.65;0.63;;;;;;;19.70;100.00;99562.75;7389474;19;20017;-58
2022/09/05 02:44:05;;;;;;;1.60;0.93;;;;;;;19.61;100.00;99567.53;7386823;19;20014;-58
2022/09/05 02:47:04;;;;;;;0.98;0.50;;;;;;;19.55;100.00;99569.72;7390600;19;20918;-58
2022/09/05 02:49:47;;;;;;;0.38;0.38;;;;;;;19.49;100.00;99577.53;7386249;19;20028;-58
2022/09/05 02:52:18;;;;;;;1.38;0.43;;;;;;;19.46;100.00;99572.22;7388817;19;20015;-58
2022/09/05 02:54:47;;;;;;;1.57;0.73;;;;;;;19.40;100.00;99580.03;7390168;19;20465;-59
2022/09/05 02:57:25;;;;;;;9.15;0.88;;;;;;;19.33;100.00;99581.44;7395094;19;20035;-58
2022/09/05 03:00:20;;;;;;;1.17;0.45;;;;;;;19.45;100.00;99577.09;7391385;19;20202;-58
2022/09/05 03:03:22;;;;;;;2.83;0.32;;;;;;;19.50;100.00;99583.94;7389533;19;20066;-58
2022/09/05 03:06:27;;;;;;;1.38;0.65;;;;;;;19.58;100.00;99596.09;7388460;19;20066;-58
2022/09/05 03:09:16;;;;;;;2.65;0.55;;;;;;;19.56;100.00;99593.06;7391803;19;20017;-58
2022/09/05 03:11:51;;;;;;;0.98;0.25;;;;;;;19.51;100.00;99591.88;7389553;19;20053;-58
2022/09/05 03:14:54;;;;;;;2.25;0.77;;;;;;;19.52;100.00;99601.88;7390206;19;20022;-58
2022/09/05 03:17:35;;;;;;;1.90;0.77;;;;;;;19.54;100.00;99618.28;7395094;19;20010;-58
2022/09/05 03:20:16;;;;;;;0.47;0.20;;;;;;;19.55;100.00;99600.78;7390995;19;20021;-58
2022/09/05 03:23:08;;;;;;;3.58;0.52;;;;;;;19.49;100.00;99588.09;7391077;19;20014;-59
2022/09/05 03:25:34;;;;;;;1.20;0.63;;;;;;;19.39;100.00;99606.75;7391770;19;20011;-58
2022/09/05 03:28:34;;;;;;;2.67;0.88;;;;;;;19.23;100.00;99605.72;7391295;19;20086;-58
2022/09/05 03:31:37;;;;;;;5.80;0.55;;;;;;;19.20;100.00;99601.19;7388453;19;20038;-58
2022/09/05 03:34:22;;;;;;;12.05;1.27;;;;;;;19.31;100.00;99617.91;7386376;19;20018;-58
2022/09/05 03:37:01;;;;;;;4.03;0.47;;;;;;;19.35;100.00;99621.22;7389811;19;20011;-58
2022/09/05 03:39:38;;;;;;;2.35;0.88;;;;;;;19.35;100.00;99611.97;7387233;19;20102;-59
2022/09/05 03:42:19;;;;;;;4.97;0.93;;;;;;;19.25;100.00;99620.06;7390481;19;20006;-58
2022/09/05 03:44:57;;;;;;;1.08;0.35;;;;;;;19.30;100.00;99622.03;7390296;19;20082;-58
2022/09/05 03:47:47;;;;;;;0.68;0.52;;;;;;;19.32;100.00;99622.25;7392740;19;20040;-58
2022/09/05 03:50:27;;;;;;;3.03;0.90;;;;;;;19.28;100.00;99624.63;7388944;19;20439;-58
2022/09/05 03:53:27;;;;;;;2.60;0.65;;;;;;;19.27;100.00;99628.78;7390285;19;20074;-58
2022/09/05 03:56:09;;;;;;;0.85;0.63;;;;;;;19.29;100.00;99634.66;7390508;19;20518;-58
2022/09/05 03:58:47;;;;;;;0.80;0.38;;;;;;;19.29;100.00;99637.47;7390038;19;20364;-58
2022/09/05 04:01:21;;;;;;;0.63;0.30;;;;;;;19.29;100.00;99640.28;7388419;19;20015;-58
2022/09/05 04:03:57;;;;;;;2.03;0.30;;;;;;;19.21;100.00;99630.91;7387822;19;20010;-58
2022/09/05 04:06:32;;;;;;;0.45;0.10;;;;;;;19.14;100.00;99628.75;7391058;19;20018;-58
2022/09/05 04:09:07;;;;;;;2.10;0.75;;;;;;;19.03;100.00;99620.47;7390532;19;20354;-59
2022/09/05 04:11:39;;;;;;;7.47;0.45;;;;;;;18.96;100.00;99623.94;7392127;19;20014;-58
2022/09/05 04:14:13;;;;;;;1.13;0.70;;;;;;;18.87;100.00;99625.09;7389055;19;20043;-58
2022/09/05 04:16:53;;;;;;;2.72;0.65;;;;;;;18.79;100.00;99629.09;7392804;19;20082;-58
2022/09/05 04:19:30;;;;;;;2.95;1.00;;;;;;;18.71;100.00;99640.22;7388789;19;20073;-58
2022/09/05 04:22:14;;;;;;;1.05;0.52;;;;;;;18.67;100.00;99644.66;7389112;19;20010;-58
2022/09/05 04:24:52;;;;;;;2.15;0.50;;;;;;;18.63;100.00;99656.28;7388061;19;20010;-58
2022/09/05 04:27:50;;;;;;;2.70;0.88;;;;;;;18.64;100.00;99654.22;7392108;19;20006;-58
2022/09/05 04:30:22;;;;;;;1.60;0.82;;;;;;;18.75;100.00;99657.59;7388569;19;20010;-58
2022/09/05 04:33:01;;;;;;;0.55;0.20;;;;;;;18.86;100.00;99656.69;7388292;19;20077;-58
2022/09/05 04:35:36;;;;;;;1.83;0.40;;;;;;;18.93;100.00;99656.03;7387676;19;20097;-59
2022/09/05 04:38:35;;;;;;;3.67;0.60;;;;;;;18.98;100.00;99652.38;7388540;19;20440;-58
2022/09/05 04:41:13;;;;;;;1.95;0.65;;;;;;;19.04;100.00;99650.22;7386744;19;20018;-58
2022/09/05 04:43:47;;;;;;;1.92;0.75;;;;;;;19.07;100.00;99666.09;7389294;19;20014;-58
2022/09/05 04:46:59;;;;;;;5.00;1.35;;;;;;;19.13;100.00;99668.81;7389571;19;20006;-59
2022/09/05 04:49:36;;;;;;;0.63;0.63;;;;;;;19.16;100.00;99674.16;7385875;19;20011;-58
2022/09/05 04:52:24;;;;;;;1.55;0.65;;;;;;;19.23;100.00;99673.50;7387304;19;20336;-58
2022/09/05 04:55:09;;;;;;;2.38;1.23;;;;;;;19.29;100.00;99679.81;7387582;19;20014;-58
2022/09/05 04:57:47;;;;;;;3.00;0.90;;;;;;;19.27;100.00;99678.84;7388128;19;20021;-59
2022/09/05 05:00:21;;;;;;;2.50;1.08;;;;;;;19.23;100.00;99673.50;7388116;19;20038;-59
2022/09/05 05:02:52;;;;;;;4.75;0.73;;;;;;;19.21;100.00;99670.44;7386646;19;20010;-59
2022/09/05 05:05:23;;;;;;;;;;;;;;;19.09;100.00;99659.91;7388985;19;20018;-59
2022/09/05 05:07:53;;;;;;;9.65;0.93;;;;;;;18.95;100.00;99670.38;7387841;19;19915;-59
2022/09/05 05:10:27;;;;;;;1.03;0.57;;;;;;;18.82;100.00;99673.91;7391585;19;20011;-59
2022/09/05 05:12:56;;;;;;;0.73;0.60;;;;;;;18.67;100.00;99661.59;7392309;19;20015;-59
2022/09/05 05:15:25;;;;;;;1.40;0.45;;;;;;;18.57;100.00;99668.94;7391509;19;20011;-59
2022/09/05 05:18:04;;;;;;;4.90;1.20;;;;;;;18.42;100.00;99669.38;7396023;19;20035;-59
2022/09/05 05:20:41;;;;;;;4.40;1.10;;;;;;;18.31;100.00;99668.75;7393751;19;20014;-59
2022/09/05 05:23:15;;;;;;;0.47;0.20;;;;;;;18.28;100.00;99669.84;7394087;19;20011;-58
2022/09/05 05:25:56;;;;;;;14.05;1.25;;;;;;;18.22;100.00;99664.25;7394114;19;20014;-59
2022/09/05 05:28:47;;;;;;;1.02;0.43;;;;;;;18.11;100.00;99656.72;7397125;19;20483;-59
2022/09/05 05:31:18;;;;;;;6.22;1.85;;;;;;;18.04;100.00;99637.59;7396966;19;20398;-59
2022/09/05 05:33:49;;;;;;;4.10;1.42;;;;;;;17.98;100.00;99636.91;7397607;19;20015;-59
2022/09/05 05:36:28;;;;;;;0.45;0.45;;;;;;;17.91;100.00;99654.41;7397777;19;20011;-59
2022/09/05 05:39:19;;;;;;;1.38;0.82;;;;;;;17.90;100.00;99658.53;7397036;19;20343;-59
2022/09/05 05:41:51;;;;;;;1.80;1.10;;;;;;;17.92;100.00;99658.00;7392829;19;20007;-59
2022/09/05 05:44:27;;;;;;;0.75;0.40;;;;;;;17.91;100.00;99643.13;7393856;19;20031;-59
2022/09/05 05:46:59;;;;;;;2.60;0.38;;;;;;;17.88;100.00;99654.72;7397853;19;20010;-59
2022/09/05 05:50:02;;;;;;;1.80;1.00;;;;;;;17.90;100.00;99658.53;7392904;19;20035;-59
2022/09/05 05:52:44;;;;;;;3.83;0.93;;;;;;;17.86;100.00;99655.25;7392487;19;20011;-58
2022/09/05 05:55:47;;;;;;;14.05;1.33;;;;;;;17.89;100.00;99659.81;7389731;19;20018;-58
2022/09/05 05:58:14;;;;;;;0.75;0.73;;;;;;;17.88;100.00;99668.81;7392898;19;20018;-58
2022/09/05 06:00:58;;;;;;;0.88;0.88;;;;;;;17.92;100.00;99660.81;7390787;19;20015;-58
2022/09/05 06:03:36;;;;;;;7.75;1.63;;;;;;;17.97;100.00;99669.22;7392891;19;20339;-59
2022/09/05 06:06:11;;;;;;;1.55;0.45;;;;;;;18.00;100.00;99676.59;7394379;19;20011;-59
2022/09/05 06:08:47;;;;;;;4.95;1.30;;;;;;;18.08;100.00;99671.88;7392664;19;20014;-59
2022/09/05 06:11:54;;;;;;;0.93;0.57;;;;;;;18.33;100.00;99671.81;7392974;19;20017;-59
2022/09/05 06:14:47;;;;;;;3.92;0.85;;;;;;;18.64;100.00;99682.44;7391657;19;20070;-59
2022/09/05 06:17:23;;;;;;;5.18;1.23;;;;;;;18.78;100.00;99678.34;7393721;19;20017;-59
2022/09/05 06:19:54;;;;;;;1.30;1.05;;;;;;;18.91;100.00;99681.22;7393038;19;20017;-59
2022/09/05 06:22:58;;;;;;;1.75;1.13;;;;;;;19.07;100.00;99682.25;7392939;19;20025;-59
2022/09/05 06:25:52;;;;;;;2.05;0.85;;;;;;;19.16;100.00;99685.44;7393420;19;20015;-59
2022/09/05 06:28:31;;;;;;;2.60;1.25;;;;;;;19.29;100.00;99682.66;7393481;19;20014;-59
2022/09/05 06:31:00;;;;;;;9.27;1.75;;;;;;;19.37;100.00;99689.22;7393414;19;20022;-59
2022/09/05 06:33:48;;;;;;;1.40;0.75;;;;;;;19.53;100.00;99699.44;7389901;19;20015;-59
2022/09/05 06:36:56;;;;;;;1.27;0.75;;;;;;;19.61;100.00;99705.22;7393164;19;20014;-59
2022/09/05 06:39:50;;;;;;;2.10;1.02;;;;;;;19.73;100.00;99706.50;7392551;19;20018;-59
2022/09/05 06:42:35;;;;;;;3.42;1.20;;;;;;;19.83;100.00;99709.69;7392179;19;20007;-60
2022/09/05 06:45:13;;;;;;;1.42;0.47;;;;;;;19.88;100.00;99726.53;7390335;19;20006;-59
2022/09/05 06:47:43;;;;;;;1.48;0.55;;;;;;;19.90;100.00;99728.81;7394901;19;20013;-60
2022/09/05 06:50:20;;;;;;;4.13;1.17;;;;;;;19.98;100.00;99733.28;7391466;19;20015;-60
2022/09/05 06:53:41;;;;;;;3.90;0.40;;;;;;;20.04;100.00;99733.16;7391463;19;20106;-60
2022/09/05 06:56:22;;;;;;;2.10;0.85;;;;;;;20.16;100.00;99740.13;7393028;19;20018;-60
2022/09/05 06:59:26;;;;;;;4.13;1.42;;;;;;;20.20;100.00;99740.56;7394715;19;20486;-60
2022/09/05 07:02:07;;;;;;;4.20;1.27;;;;;;;20.24;100.00;99736.13;7390520;19;20375;-60
2022/09/05 07:04:33;;;;;;;4.60;2.20;;;;;;;20.28;100.00;99735.78;7391003;19;20034;-60
2022/09/05 07:07:16;;;;;;;2.05;0.70;;;;;;;20.33;100.00;99747.00;7395257;19;20035;-58
2022/09/05 07:10:24;;;;;;;19.15;1.58;;;;;;;20.40;100.00;99748.38;7393970;19;20019;-60
2022/09/05 07:12:58;;;;;;;3.80;1.55;;;;;;;20.41;100.00;99744.25;7387141;19;20663;-60
2022/09/05 07:15:59;;;;;;;4.25;1.35;;;;;;;20.46;100.00;99742.63;7385350;19;20044;-60
2022/09/05 07:18:49;;;;;;;6.10;0.85;;;;;;;20.52;100.00;99741.19;7389342;19;20352;-58
2022/09/05 07:21:23;;;;;;;6.20;1.33;;;;;;;20.50;100.00;99740.22;7390919;19;20018;-58
2022/09/05 07:24:00;;;;;;;4.70;1.73;;;;;;;20.47;100.00;99738.47;7390712;19;20018;-62
2022/09/05 07:26:30;;;;;;;3.17;1.15;;;;;;;20.57;100.00;99729.00;7392789;19;20010;-60
2022/09/05 07:29:02;;;;;;;3.53;1.40;;;;;;;20.66;100.00;99731.34;7390287;19;20014;-60
2022/09/05 07:31:32;;;;;;;4.55;1.38;;;;;;;20.75;100.00;99738.63;7388911;19;20474;-59
2022/09/05 07:34:22;;;;;;;5.10;1.67;;;;;;;20.81;100.00;99736.44;7387492;19;20347;-59
2022/09/05 07:36:53;;;;;;;6.93;2.30;;;;;;;20.78;100.00;99751.69;7391571;19;20014;-60
2022/09/05 07:39:27;;;;;;;13.82;1.42;;;;;;;20.90;100.00;99750.88;7390150;19;20227;-59
2022/09/05 07:41:57;;;;;;;6.82;1.40;;;;;;;21.01;100.00;99755.53;7390632;19;20018;-59
2022/09/05 07:44:31;;;;;;;4.03;1.90;;;;;;;21.05;100.00;99750.31;7389751;19;20519;-59
2022/09/05 07:47:05;;;;;;;6.15;1.08;;;;;;;21.07;100.00;99742.78;7391756;19;20043;-59
2022/09/05 07:49:34;;;;;;;1.20;0.52;;;;;;;20.96;100.00;99747.94;7388452;19;20022;-59
2022/09/05 07:52:08;;;;;;;3.60;1.08;;;;;;;20.86;100.00;99747.63;7393037;19;20014;-59
2022/09/05 07:54:40;;;;;;;2.42;0.98;;;;;;;20.83;100.00;99751.56;7392604;19;20011;-59
2022/09/05 07:57:09;;;;;;;4.70;1.95;;;;;;;20.92;100.00;99753.91;7392521;19;20006;-59
2022/09/05 07:59:40;;;;;;;2.17;0.63;;;;;;;20.96;100.00;99750.75;7389769;19;20007;-59
2022/09/05 08:02:10;;;;;;;2.88;0.85;;;;;;;21.07;100.00;99742.03;7389969;19;20011;-59
2022/09/05 08:04:39;;;;;;;3.22;0.75;;;;;;;21.27;100.00;99751.88;7383681;19;20556;-59
2022/09/05 08:07:12;;;;;;;2.22;0.43;;;;;;;21.43;100.00;99750.69;7388814;19;20010;-60
2022/09/05 08:09:51;;;;;;;3.55;0.70;;;;;;;21.55;100.00;99751.94;7388212;19;20385;-59
2022/09/05 08:12:30;;;;;;;1.30;0.68;;;;;;;21.76;100.00;99755.50;7385344;19;20339;-59
2022/09/05 08:15:17;;;;;;;2.05;1.27;;;;;;;21.88;100.00;99756.72;7385397;19;20082;-59
2022/09/05 08:17:54;;;;;;;7.45;1.50;;;;;;;21.97;100.00;99759.06;7389546;19;20019;-59
2022/09/05 08:20:38;;;;;;;2.67;0.88;;;;;;;22.07;100.00;99762.16;7389312;19;20018;-59
2022/09/05 08:23:17;;;;;;;5.78;1.20;;;;;;;21.97;100.00;99764.75;7389851;19;20010;-60
2022/09/05 08:26:38;;;;;;;3.10;0.95;;;;;;;22.00;100.00;99769.31;7389921;19;20030;-59
2022/09/05 08:29:14;;;;;;;0.75;0.32;;;;;;;22.04;100.00;99780.28;7387404;19;20035;-58
2022/09/05 08:31:51;;;;;;;2.47;0.45;;;;;;;22.17;100.00;99783.78;7388995;19;20335;-58
2022/09/05 08:34:31;;;;;;;0.57;0.32;;;;;;;22.10;100.00;99772.38;7388113;19;20011;-58
2022/09/05 08:36:59;;;;;;;3.03;0.38;;;;;;;22.22;100.00;99771.50;7391895;19;20333;-58
2022/09/05 08:39:28;;;;;;;1.83;0.63;;;;;;;22.40;100.00;99778.22;7388641;19;20035;-58
2022/09/05 08:42:25;;;;;;;2.78;0.55;;;;;;;22.56;100.00;99769.25;7389026;19;20015;-58
2022/09/05 08:45:00;;;;;;;3.70;0.57;;;;;;;22.43;100.00;99783.56;7389050;19;20010;-58
2022/09/05 08:47:43;;;;;;;0.77;0.45;;;;;;;22.56;100.00;99772.09;7399716;19;20011;-58
2022/09/05 08:50:22;;;;;;;2.17;0.77;;;;;;;22.51;100.00;99784.34;7396881;19;20041;-58
2022/09/05 08:53:11;;;;;;;0.85;0.13;;;;;;;22.49;100.00;99791.91;7396580;19;20029;-58
2022/09/05 08:55:59;;;;;;;1.63;0.20;;;;;;;22.74;100.00;99787.31;7394730;19;20010;-58
2022/09/05 08:58:58;;;;;;;3.05;0.73;;;;;;;22.46;100.00;99782.44;7395291;19;20031;-58
2022/09/05 09:01:33;;;;;;;1.90;0.77;;;;;;;22.26;100.00;99774.75;7394138;19;20017;-58
2022/09/05 09:04:02;;;;;;;2.22;0.93;;;;;;;22.22;100.00;99782.13;7395446;19;20463;-58
2022/09/05 09:07:00;;;;;;;1.05;0.43;;;;;;;22.22;100.00;99787.78;7398324;19;20467;-58
2022/09/05 09:09:26;;;;;;;6.30;0.68;;;;;;;22.30;100.00;99792.19;7396847;19;20006;-58
2022/09/05 09:12:02;;;;;;;1.65;0.28;;;;;;;22.32;100.00;99780.28;7394622;19;20013;-58
2022/09/05 09:14:37;;;;;;;0.55;0.38;;;;;;;22.27;100.00;99786.84;7393816;19;20048;-58
2022/09/05 09:17:20;;;;;;;1.27;0.40;;;;;;;22.07;100.00;99782.75;7398593;19;20031;-58
2022/09/05 09:20:20;;;;;;;9.13;0.70;;;;;;;22.09;100.00;99777.28;7394680;19;20015;-58
2022/09/05 09:22:55;;;;;;;0.25;0.25;;;;;;;22.13;100.00;99776.94;7395880;19;20540;-58
2022/09/05 09:25:37;;;;;;;6.53;0.63;;;;;;;22.29;100.00;99767.19;7394818;19;20807;-58
2022/09/05 09:28:18;;;;;;;1.23;0.43;;;;;;;22.71;100.00;99767.81;7394806;19;20015;-58
2022/09/05 09:30:52;;;;;;;;;;;;;;;22.99;100.00;99770.56;7394988;19;20010;-58
2022/09/05 09:33:28;;;;;;;9.32;1.02;;;;;;;23.16;100.00;99762.25;7394106;19;19919;-58
2022/09/05 09:36:14;;;;;;;3.97;0.45;;;;;;;23.32;100.00;99761.72;7393431;19;20011;-58
2022/09/05 09:39:01;;;;;;;2.00;0.52;;;;;;;23.43;100.00;99757.03;7394150;19;20003;-59
2022/09/05 09:41:33;;;;;;;3.35;0.77;;;;;;;23.53;100.00;99760.81;7392533;19;20014;-59
2022/09/05 09:44:29;;;;;;;3.58;0.43;;;;;;;23.71;100.00;99766.16;7395195;19;20018;-59
2022/09/05 09:46:55;;;;;;;4.00;0.32;;;;;;;23.79;100.00;99766.91;7397851;19;20041;-59
2022/09/05 09:49:49;;;;;;;2.60;0.57;;;;;;;23.86;100.00;99766.13;7394436;19;20025;-59
2022/09/05 09:52:45;;;;;;;0.65;0.35;;;;;;;23.95;100.00;99762.69;7393914;19;20022;-59
2022/09/05 09:55:41;;;;;;;0.45;0.30;;;;;;;24.02;100.00;99766.84;7392847;19;20018;-59
2022/09/05 09:58:31;;;;;;;0.95;0.40;;;;;;;24.01;100.00;99771.81;7392041;19;20010;-59
2022/09/05 10:01:12;;;;;;;6.82;0.57;;;;;;;24.16;100.00;99759.66;7394128;19;20014;-59
2022/09/05 10:04:13;;;;;;;0.43;0.30;;;;;;;24.38;100.00;99756.00;7394193;19;20029;-59
2022/09/05 10:06:46;;;;;;;1.70;0.40;;;;;;;24.43;100.00;99757.13;7397017;19;20010;-59
2022/09/05 10:09:28;;;;;;;8.48;0.28;;;;;;;24.51;100.00;99746.47;7395994;19;20015;-59
2022/09/05 10:12:13;;;;;;;0.80;0.15;;;;;;;24.62;100.00;99751.75;7393440;19;20016;-59
2022/09/05 10:14:45;;;;;;;2.72;0.28;;;;;;;24.60;100.00;99754.41;7390778;19;20347;-60
2022/09/05 10:17:51;;;;;;;0.20;0.00;;;;;;;24.54;100.00;99748.91;7396962;19;20010;-60
2022/09/05 10:20:38;;;;;;;0.63;0.50;;;;;;;24.55;100.00;99758.22;7391420;19;20011;-60
2022/09/05 10:23:25;;;;;;;0.28;0.10;;;;;;;24.55;100.00;99755.38;7391837;19;20026;-60
2022/09/05 10:26:11;;;;;;;0.47;0.20;;;;;;;24.96;100.00;99743.44;7393588;19;20130;-60
2022/09/05 10:28:56;;;;;;;0.80;0.63;;;;;;;24.52;100.00;99745.13;7397396;19;20034;-60
2022/09/05 10:31:55;;;;;;;3.50;0.55;;;;;;;24.51;100.00;99737.94;7392233;19;20014;-60
2022/09/05 10:34:24;;;;;;;6.40;0.38;;;;;;;24.34;100.00;99737.81;7392518;19;20011;-60
2022/09/05 10:36:53;;;;;;;0.80;0.17;;;;;;;24.26;100.00;99739.88;7394853;19;20010;-60
2022/09/05 10:39:25;;;;;;;6.13;0.60;;;;;;;24.24;100.00;99742.56;7391930;19;20069;-60
2022/09/05 10:41:57;;;;;;;0.40;0.10;;;;;;;24.28;100.00;99732.28;7392566;19;20104;-60
2022/09/05 10:44:49;;;;;;;0.88;0.45;;;;;;;24.46;100.00;99733.19;7392508;19;20025;-60
2022/09/05 10:47:22;;;;;;;3.33;0.28;;;;;;;24.74;100.00;99738.56;7396445;19;20014;-61
2022/09/05 10:49:59;;;;;;;1.27;0.17;;;;;;;24.58;100.00;99737.88;7391720;19;20404;-61
2022/09/05 10:52:51;;;;;;;2.38;0.30;;;;;;;24.69;100.00;99736.69;7391577;19;20022;-61
2022/09/05 10:55:39;;;;;;;0.38;0.35;;;;;;;26.78;100.00;99731.88;7391303;19;20070;-61
2022/09/05 10:58:58;;;;;;;3.05;0.32;;;;;;;26.06;100.00;99740.84;7391625;19;20771;-60
2022/09/05 11:01:32;;;;;;;1.20;0.32;;;;;;;25.04;100.00;99744.13;7389567;19;20786;-61
2022/09/05 11:04:15;;;;;;;1.98;0.30;;;;;;;27.39;100.00;99736.75;7391581;19;20015;-61
2022/09/05 11:06:41;;;;;;;3.60;0.28;;;;;;;25.41;100.00;99751.69;7394266;19;20346;-61
2022/09/05 11:09:18;;;;;;;1.17;0.25;;;;;;;24.87;100.00;99735.50;7390382;19;20010;-61
2022/09/05 11:11:54;;;;;;;9.52;1.80;;;;;;;24.77;100.00;99743.91;7392526;19;20020;-60
2022/09/05 11:14:27;;;;;;;4.30;1.67;;;;;;;24.88;100.00;99734.19;7391376;19;20325;-60
2022/09/05 11:17:07;;;;;;;38.70;3.53;;;;;;;25.01;100.00;99728.22;7395153;19;20015;-61
2022/09/05 11:19:47;;;;;;;12.67;2.03;;;;;;;25.12;100.00;99727.72;7390703;19;20010;-61
2022/09/05 11:22:14;;;;;;;;;;;;;;;25.16;100.00;99722.41;7391945;19;20015;-60
2022/09/05 11:24:57;;;;;;;8.57;2.25;;;;;;;25.33;100.00;99728.19;7388505;19;19918;-61
2022/09/05 11:27:44;;;;;;;3.17;0.30;;;;;;;25.54;100.00;99728.59;7394580;19;20033;-60
2022/09/05 11:30:14;;;;;;;0.95;0.30;;;;;;;25.58;100.00;99725.31;7391940;19;20021;-60
2022/09/05 11:32:59;;;;;;;0.77;0.13;;;;;;;25.65;100.00;99726.59;7391845;19;20022;-60
2022/09/05 11:35:27;;;;;;;0.45;0.10;;;;;;;25.66;100.00;99723.19;7389317;19;20274;-60
2022/09/05 11:38:09;;;;;;;0.40;0.10;;;;;;;25.61;100.00;99726.25;7390322;19;20078;-60
2022/09/05 11:40:53;;;;;;;1.25;0.73;;;;;;;25.53;100.00;99717.78;7390345;19;20013;-60
2022/09/05 11:43:40;;;;;;;0.50;0.30;;;;;;;25.70;100.00;99729.22;7390280;19;20357;-60
2022/09/05 11:46:19;;;;;;;0.95;0.40;;;;;;;26.52;100.00;99720.38;7391314;19;20019;-60
2022/09/05 11:49:03;;;;;;;2.08;0.32;;;;;;;26.14;100.00;99710.16;7395264;19;20533;-60
2022/09/05 11:51:51;;;;;;;2.22;0.25;;;;;;;26.01;100.00;99721.88;7390219;19;20010;-60
2022/09/05 11:54:48;;;;;;;5.25;0.63;;;;;;;25.82;100.00;99718.84;7390698;19;20014;-61
2022/09/05 11:57:40;;;;;;;5.15;0.35;;;;;;;25.58;100.00;99714.69;7394730;19;20026;-60
2022/09/05 12:00:10;;;;;;;0.43;0.38;;;;;;;25.52;100.00;99719.88;7394812;19;20446;-60
2022/09/05 12:03:13;;;;;;;0.65;0.32;;;;;;;25.79;100.00;99713.56;7389199;19;20355;-60
2022/09/05 12:05:51;;;;;;;2.72;0.30;;;;;;;26.16;100.00;99718.88;7388219;19;20466;-60
2022/09/05 12:08:40;;;;;;;0.52;0.00;;;;;;;26.39;100.00;99707.22;7389999;19;20030;-61
2022/09/05 12:11:37;;;;;;;0.57;0.10;;;;;;;26.49;100.00;99699.47;7390172;19;20078;-60
2022/09/05 12:14:19;;;;;;;1.17;0.22;;;;;;;26.53;100.00;99708.34;7389813;19;20050;-60
2022/09/05 12:17:06;;;;;;;0.20;0.10;;;;;;;26.62;100.00;99699.09;7393412;19;20006;-60
2022/09/05 12:19:53;;;;;;;0.35;0.30;;;;;;;26.69;100.00;99700.34;7387152;19;20014;-60
2022/09/05 12:22:28;;;;;;;2.72;0.50;;;;;;;26.72;100.00;99705.66;7385858;19;20006;-60
2022/09/05 12:25:12;;;;;;;0.77;0.10;;;;;;;26.82;100.00;99703.63;7383374;19;20022;-81
2022/09/05 12:27:46;;;;;;;2.28;0.30;;;;;;;27.04;100.00;99691.09;7383848;19;20394;-80
2022/09/05 12:30:20;;;;;;;3.53;0.75;;;;;;;27.14;100.00;99699.72;7386080;19;20481;-81
2022/09/05 12:33:22;;;;;;;1.15;0.10;;;;;;;27.42;100.00;99701.97;7387294;19;20043;-80
2022/09/05 12:36:02;;;;;;;0.20;0.00;;;;;;;27.69;100.00;99704.75;7380176;19;20748;-80
2022/09/05 12:38:28;;;;;;;0.65;0.57;;;;;;;27.66;100.00;99703.09;7384884;19;20011;-80
2022/09/05 12:41:04;;;;;;;2.38;0.28;;;;;;;27.55;100.00;99695.84;7385163;19;20078;-80